Time;durP1;ratioP1;P1;durP2;ratioP2;P2;SDS_P1;SDS_P2;PMS_P1;PMS_P2;Temp;Humidity;BMP_temperature;BMP_pressure;BME280_temperature;BME280_humidity;BME280_pressure;Samples;Min_cycle;Max_cycle;Signal;HPM_P1;HPM_P2
2022/01/25 00:10:25;;;;;;;;;71.25;55.25;;;;;3.39;69.15;102621.09;4859014;29;45381;-56
2022/01/25 00:26:24;;;;;;;;;71.50;59.00;;;;;2.91;69.56;102584.00;4867477;29;45340;-53
2022/01/25 00:29:02;;;;;;;;;72.75;56.75;;;;;2.97;69.29;102600.69;4865938;29;45372;-55
2022/01/25 00:31:28;;;;;;;;;74.50;57.25;;;;;3.08;69.25;102618.00;4882046;29;45439;-56
2022/01/25 00:33:54;;;;;;;;;65.75;51.75;;;;;3.13;69.39;102618.53;4880601;29;45407;-58
2022/01/25 00:36:21;;;;;;;;;69.00;53.25;;;;;3.13;68.80;102628.53;4849228;29;47326;-57
2022/01/25 00:38:47;;;;;;;;;72.00;56.75;;;;;3.07;68.81;102628.00;4881728;29;45157;-56
2022/01/25 00:41:13;;;;;;;;;69.50;55.25;;;;;3.03;68.93;102617.50;4849500;29;45410;-55
2022/01/25 00:43:38;;;;;;;;;67.00;54.00;;;;;3.12;69.27;102624.94;4864598;29;45654;-55
2022/01/25 00:46:10;;;;;;;;;66.50;50.25;;;;;3.02;67.96;102608.50;4881870;29;46092;-56
2022/01/25 00:53:56;;;;;;;;;63.50;51.00;;;;;3.00;68.17;102615.00;4881374;29;45442;-52
2022/01/25 00:56:23;;;;;;;;;73.75;54.50;;;;;2.97;67.69;102624.25;4866238;29;45829;-53
2022/01/25 00:58:49;;;;;;;;;66.50;51.00;;;;;2.88;67.69;102630.38;4881199;29;45406;-55
2022/01/25 01:01:15;;;;;;;;;45.25;26.50;;;;;2.65;68.07;102616.66;4864594;29;46109;-58
2022/01/25 01:03:40;;;;;;;;;71.00;56.00;;;;;2.67;68.62;102621.00;4864280;29;45417;-59
2022/01/25 01:06:06;;;;;;;;;65.75;53.75;;;;;2.58;68.70;102606.25;4879562;29;48245;-52
2022/01/25 01:08:32;;;;;;;;;71.25;55.25;;;;;2.63;68.71;102622.22;4864212;29;45456;-54
2022/01/25 01:11:00;;;;;;;;;68.75;53.75;;;;;2.63;68.72;102616.78;4848552;29;45361;-55
2022/01/25 01:38:10;;;;;;;;;57.50;46.75;;;;;2.36;69.75;102628.69;4843436;29;45868;-54
2022/01/25 01:46:00;;;;;;;;;55.50;45.75;;;;;2.17;69.61;102629.13;4843210;29;45581;-54
2022/01/25 01:51:13;;;;;;;;;52.80;46.00;;;;;1.88;69.92;102586.88;4812582;29;45335;-56
2022/01/25 01:53:39;;;;;;;;;59.25;46.00;;;;;2.20;69.78;102633.44;4828495;29;45455;-55
2022/01/25 01:56:06;;;;;;;;;60.50;44.75;;;;;2.12;69.57;102631.28;4826945;29;45909;-56
2022/01/25 01:58:34;;;;;;;;;59.40;43.20;;;;;2.15;70.18;102636.50;4826245;29;45503;-55
2022/01/25 02:00:59;;;;;;;;;47.40;41.80;;;;;2.01;70.05;102623.94;4811584;29;45559;-57
2022/01/25 02:03:25;;;;;;;;;57.50;42.75;;;;;2.11;70.30;102640.41;4842962;29;45503;-55
2022/01/25 02:05:50;;;;;;;;;51.75;43.50;;;;;2.06;69.99;102640.72;4843309;29;45399;-55
2022/01/25 02:08:16;;;;;;;;;64.00;45.50;;;;;2.12;69.46;102640.28;4843205;29;45592;-54
2022/01/25 02:10:42;;;;;;;;;56.50;45.75;;;;;2.12;69.90;102634.88;4843001;29;45513;-56
2022/01/25 02:13:08;;;;;;;;;47.00;44.25;;;;;2.17;69.57;102643.53;4826854;29;45312;-53
2022/01/25 02:15:36;;;;;;;;;60.50;46.00;;;;;2.09;69.74;102629.66;4844620;29;45575;-53
2022/01/25 02:23:30;;;;;;;;;51.40;42.60;;;;;2.19;68.95;102634.44;4860890;29;45416;-55
2022/01/25 02:25:58;;;;;;;;;48.50;42.00;;;;;2.14;68.67;102642.91;4848024;29;45318;-56
2022/01/25 02:28:27;;;;;;;;;40.25;35.50;;;;;2.14;69.02;102640.19;4880365;29;45831;-56
2022/01/25 02:30:53;;;;;;;;;47.00;40.80;;;;;2.07;68.75;102644.31;4863005;29;45495;-53
2022/01/25 02:33:18;;;;;;;;;62.25;44.25;;;;;1.85;68.92;102597.06;4879909;29;45383;-55
2022/01/25 02:35:44;;;;;;;;;46.50;37.25;;;;;1.64;68.81;102572.38;4847744;29;45849;-55
2022/01/25 02:38:09;;;;;;;;;45.00;39.75;;;;;1.97;69.02;102639.53;4862598;29;45495;-54
2022/01/25 02:40:35;;;;;;;;;40.50;37.50;;;;;2.05;68.78;102646.25;4863044;29;45406;-55
2022/01/25 02:43:01;;;;;;;;;45.75;40.00;;;;;1.78;69.23;102623.72;4879854;29;45353;-56
2022/01/25 02:45:32;;;;;;;;;37.50;33.50;;;;;1.89;69.11;102644.63;4878161;29;45645;-54
2022/01/25 02:50:42;;;;;;;;;33.80;31.40;;;;;1.85;68.91;102634.97;4865231;29;45487;-56
2022/01/25 02:53:08;;;;;;;;;44.00;37.75;;;;;1.94;68.91;102645.19;4879921;29;45396;-54
2022/01/25 02:55:33;;;;;;;;;37.25;34.75;;;;;1.88;68.39;102627.50;4863534;29;45725;-57
2022/01/25 02:57:59;;;;;;;;;24.75;21.00;;;;;1.93;69.13;102638.03;4862575;29;45615;-57
2022/01/25 03:00:25;;;;;;;;;35.00;33.75;;;;;1.95;68.93;102641.50;4847570;29;45287;-57
2022/01/25 03:02:50;;;;;;;;;38.50;34.00;;;;;1.90;68.48;102649.06;4842500;28;45343;-54
2022/01/25 03:05:16;;;;;;;;;34.00;31.25;;;;;1.76;68.92;102618.41;4858595;29;45428;-54
2022/01/25 03:07:43;;;;;;;;;43.00;36.00;;;;;1.92;69.18;102638.13;4860787;29;45327;-53
2022/01/25 03:10:09;;;;;;;;;42.60;34.80;;;;;1.91;68.59;102642.66;4860504;29;45305;-54
2022/01/25 03:12:56;;;;;;;;;45.00;36.75;;;;;1.92;69.03;102638.97;4860103;29;45363;-55
2022/01/25 03:17:54;;;;;;;;;44.00;36.00;;;;;1.91;69.12;102639.97;4860568;29;45614;-53
2022/01/25 03:20:35;;;;;;;;;39.80;33.40;;;;;2.00;68.84;102647.47;4860786;29;45424;-52
2022/01/25 03:23:05;;;;;;;;;33.40;29.20;;;;;2.02;68.81;102647.31;4864122;29;45463;-53
2022/01/25 03:25:31;;;;;;;;;38.80;32.80;;;;;2.03;68.90;102633.69;4879577;29;45470;-57
2022/01/25 03:27:57;;;;;;;;;45.50;35.75;;;;;1.81;68.31;102600.97;4879269;29;46188;-56
2022/01/25 03:30:24;;;;;;;;;49.40;39.20;;;;;2.05;68.36;102635.41;4877922;29;45546;-55
2022/01/25 03:32:49;;;;;;;;;23.60;20.40;;;;;2.02;68.75;102631.94;4862426;29;45496;-56
2022/01/25 03:35:15;;;;;;;;;44.00;35.50;;;;;2.01;68.45;102629.34;4879065;29;45455;-52
2022/01/25 03:37:40;;;;;;;;;38.25;34.00;;;;;2.03;68.36;102630.97;4879233;29;45387;-56
2022/01/25 03:40:06;;;;;;;;;35.50;32.75;;;;;1.79;67.62;102583.94;4878832;29;45565;-58
2022/01/25 03:42:36;;;;;;;;;48.60;32.40;;;;;1.74;68.68;102587.88;4879152;29;45364;-57
2022/01/25 03:45:02;;;;;;;;;43.50;34.00;;;;;1.75;68.89;102586.00;4879164;29;45451;-53
2022/01/25 03:47:42;;;;;;;;;43.00;36.40;;;;;1.92;68.62;102611.91;4878656;29;47535;-56
2022/01/25 03:50:08;;;;;;;;;44.60;36.40;;;;;1.55;68.89;102555.78;4878422;29;45361;-58
2022/01/25 03:52:36;;;;;;;;;39.00;34.00;;;;;1.65;69.46;102577.66;4879160;29;45301;-57
2022/01/25 03:55:01;;;;;;;;;42.00;38.00;;;;;1.91;68.91;102612.03;4862327;29;45379;-58
2022/01/25 03:57:27;;;;;;;;;52.50;38.75;;;;;1.92;69.40;102611.91;4878410;29;48751;-55
2022/01/25 03:59:53;;;;;;;;;40.75;37.75;;;;;1.96;69.76;102602.59;4881757;29;45414;-59
2022/01/25 04:02:19;;;;;;;;;38.80;37.60;;;;;1.94;69.43;102617.22;4864743;29;45406;-56
2022/01/25 04:04:46;;;;;;;;;38.75;38.50;;;;;1.91;70.47;102609.31;4881948;29;45372;-53
2022/01/25 04:07:13;;;;;;;;;60.25;46.25;;;;;1.83;70.05;102593.59;4876158;28;47117;-53
2022/01/25 04:09:39;;;;;;;;;48.00;42.60;;;;;1.93;70.91;102610.06;4856260;29;45760;-56
2022/01/25 04:12:05;;;;;;;;;56.25;41.00;;;;;2.00;70.24;102614.94;4861526;29;45326;-54
2022/01/25 04:14:31;;;;;;;;;52.50;41.50;;;;;2.08;70.60;102621.66;4862812;29;45420;-53
2022/01/25 04:17:01;;;;;;;;;54.25;43.75;;;;;2.03;70.49;102622.00;4862914;29;45892;-58
2022/01/25 04:27:22;;;;;;;;;58.50;43.00;;;;;2.04;70.29;102621.00;4866918;29;45878;-54
2022/01/25 04:29:48;;;;;;;;;61.60;45.40;;;;;1.64;70.53;102567.81;4864541;29;45375;-57
2022/01/25 04:32:14;;;;;;;;;53.75;43.75;;;;;2.03;70.26;102622.00;4865086;29;45517;-58
2022/01/25 04:34:47;;;;;;;;;58.25;45.25;;;;;2.05;70.71;102621.88;4880037;29;45279;-55
2022/01/25 04:58:57;;;;;;;;;56.75;46.50;;;;;2.04;70.95;102639.97;4868043;29;45447;-55
2022/01/25 05:01:23;;;;;;;;;52.50;43.00;;;;;2.10;70.41;102638.66;4881070;29;45278;-60
2022/01/25 05:03:57;;;;;;;;;56.75;43.00;;;;;2.09;70.60;102623.38;4881121;29;45364;-57
2022/01/25 05:06:23;;;;;;;;;59.25;46.75;;;;;2.12;70.46;102629.44;4865785;29;45986;-57
2022/01/25 05:08:53;;;;;;;;;61.25;48.75;;;;;1.96;70.64;102605.31;4880957;29;45815;-58
2022/01/25 05:24:30;;;;;;;;;66.75;48.75;;;;;2.22;70.72;102643.22;4867375;29;45467;-57
2022/01/25 05:26:55;;;;;;;;;57.00;44.75;;;;;2.17;70.71;102642.66;4845597;29;45674;-57
2022/01/25 05:29:21;;;;;;;;;58.50;48.50;;;;;2.11;70.99;102638.56;4845080;29;48693;-56
2022/01/25 05:31:46;;;;;;;;;62.75;46.50;;;;;2.06;71.30;102638.00;4861850;29;45333;-55
2022/01/25 05:34:12;;;;;;;;;59.25;47.50;;;;;2.11;71.36;102640.41;4862061;29;45232;-54
2022/01/25 05:36:38;;;;;;;;;54.50;43.50;;;;;1.87;70.80;102589.72;4862451;29;45262;-56
2022/01/25 05:39:10;;;;;;;;;47.00;44.50;;;;;1.87;71.04;102601.41;4843097;28;45861;-58
2022/01/25 05:41:35;;;;;;;;;60.50;48.75;;;;;2.03;71.82;102639.09;4864680;29;45500;-56
2022/01/25 05:44:23;;;;;;;;;60.75;47.25;;;;;2.14;71.64;102646.47;4880467;29;45365;-56
2022/01/25 05:49:23;;;;;;;;;67.75;48.25;;;;;2.23;71.47;102642.22;4880175;29;46446;-54
2022/01/25 05:51:49;;;;;;;;;66.00;47.50;;;;;2.24;71.42;102643.09;4880764;29;45317;-53
2022/01/25 05:54:14;;;;;;;;;63.25;50.50;;;;;2.29;71.43;102646.31;4880994;29;45384;-56
2022/01/25 05:56:40;;;;;;;;;54.75;46.50;;;;;2.30;71.49;102640.81;4864008;29;45615;-58
2022/01/25 05:59:05;;;;;;;;;69.25;51.00;;;;;2.33;71.06;102638.88;4863358;29;45573;-56
2022/01/25 06:01:32;;;;;;;;;64.75;49.00;;;;;2.36;71.15;102646.78;4879080;29;45447;-56
2022/01/25 06:03:58;;;;;;;;;61.50;50.75;;;;;2.40;70.98;102642.88;4880410;29;45401;-53
2022/01/25 06:06:23;;;;;;;;;61.75;48.00;;;;;1.93;70.89;102566.72;4863803;29;45577;-53
2022/01/25 06:08:49;;;;;;;;;50.00;39.75;;;;;2.28;71.28;102633.75;4863521;29;48158;-56
2022/01/25 06:11:14;;;;;;;;;64.25;48.00;;;;;2.22;71.33;102626.94;4880056;29;45358;-56
2022/01/25 06:13:40;;;;;;;;;70.00;50.25;;;;;2.21;71.34;102646.91;4880700;29;45505;-57
2022/01/25 06:16:05;;;;;;;;;55.50;44.00;;;;;2.19;71.70;102643.41;4880212;29;45317;-54
2022/01/25 06:18:31;;;;;;;;;54.25;43.50;;;;;2.15;71.95;102631.09;4880042;29;46227;-53
2022/01/25 06:20:56;;;;;;;;;66.25;51.50;;;;;2.09;72.18;102621.53;4879670;29;45341;-54
2022/01/25 06:23:22;;;;;;;;;72.75;51.75;;;;;2.17;72.29;102638.13;4845014;29;45749;-58
2022/01/25 06:25:47;;;;;;;;;71.25;51.50;;;;;2.22;72.22;102637.78;4861785;29;45279;-56
2022/01/25 06:28:16;;;;;;;;;68.25;49.50;;;;;2.26;72.12;102642.03;4861008;29;46227;-54
2022/01/25 06:30:42;;;;;;;;;69.00;56.00;;;;;2.03;72.00;102606.59;4861304;29;45484;-55
2022/01/25 06:33:08;;;;;;;;;60.50;50.25;;;;;2.30;71.88;102648.94;4829084;29;45422;-57
2022/01/25 06:35:34;;;;;;;;;72.50;52.50;;;;;2.33;72.42;102652.44;4861128;29;45432;-55
2022/01/25 06:38:00;;;;;;;;;61.50;47.75;;;;;2.34;72.14;102655.00;4861317;29;45793;-54
2022/01/25 06:40:26;;;;;;;;;65.50;51.00;;;;;2.35;72.08;102645.03;4860580;29;45429;-52
2022/01/25 06:42:51;;;;;;;;;66.25;51.00;;;;;2.36;72.16;102646.78;4844491;29;45362;-54
2022/01/25 06:45:18;;;;;;;;;60.25;51.25;;;;;2.38;72.30;102647.50;4829272;29;45661;-54
2022/01/25 06:47:44;;;;;;;;;70.50;52.25;;;;;2.38;72.01;102645.69;4859428;29;47443;-54
2022/01/25 06:50:10;;;;;;;;;67.00;49.50;;;;;2.25;71.83;102624.00;4860778;29;45605;-56
2022/01/25 06:52:37;;;;;;;;;71.75;51.50;;;;;2.31;72.53;102636.28;4843843;29;45449;-59
2022/01/25 06:55:07;;;;;;;;;66.75;51.25;;;;;2.33;72.51;102639.72;4861424;29;45569;-59
2022/01/25 06:57:33;;;;;;;;;49.75;43.50;;;;;2.33;72.23;102639.72;4860431;29;46131;-54
2022/01/25 06:59:58;;;;;;;;;57.50;46.75;;;;;2.19;71.90;102608.19;4860915;29;45846;-56
2022/01/25 07:02:24;;;;;;;;;68.50;55.00;;;;;2.36;72.57;102631.38;4860596;29;45332;-55
2022/01/25 07:04:49;;;;;;;;;74.00;54.75;;;;;2.13;72.14;102605.94;4860790;29;45329;-58
2022/01/25 07:07:15;;;;;;;;;67.50;52.25;;;;;2.25;72.52;102625.88;4843890;29;45958;-53
2022/01/25 07:09:40;;;;;;;;;67.75;52.75;;;;;2.12;72.15;102607.78;4832298;29;45489;-55
2022/01/25 07:12:06;;;;;;;;;65.75;51.50;;;;;2.33;72.24;102644.28;4879650;29;45370;-52
2022/01/25 07:14:32;;;;;;;;;68.25;54.25;;;;;2.41;72.43;102645.44;4879797;29;45662;-55
2022/01/25 07:16:58;;;;;;;;;64.00;52.75;;;;;2.37;72.49;102646.66;4878006;29;47881;-58
2022/01/25 07:19:24;;;;;;;;;56.50;45.00;;;;;2.41;72.02;102642.75;4862389;29;45423;-57
2022/01/25 07:21:49;;;;;;;;;64.00;49.25;;;;;2.44;72.23;102649.78;4879330;29;45381;-55
2022/01/25 07:24:15;;;;;;;;;66.50;51.25;;;;;2.36;72.25;102649.47;4871985;29;45504;-57
2022/01/25 07:26:41;;;;;;;;;61.50;48.75;;;;;2.25;72.61;102642.13;4828252;29;47084;-54
2022/01/25 07:29:06;;;;;;;;;70.75;52.25;;;;;2.29;72.60;102655.34;4860888;29;45461;-56
2022/01/25 07:31:32;;;;;;;;;67.75;51.75;;;;;2.34;72.12;102656.88;4861033;29;45319;-55
2022/01/25 07:33:57;;;;;;;;;64.00;51.50;;;;;2.40;72.50;102656.44;4847475;29;45562;-56
2022/01/25 07:36:23;;;;;;;;;66.50;50.75;;;;;2.33;72.96;102663.28;4846930;29;45979;-54
2022/01/25 07:38:48;;;;;;;;;67.25;48.00;;;;;2.29;72.84;102657.16;4863650;29;45426;-54
2022/01/25 07:41:14;;;;;;;;;69.00;49.25;;;;;2.24;73.29;102667.50;4864085;29;45385;-54
2022/01/25 07:43:39;;;;;;;;;68.25;50.50;;;;;2.28;72.91;102669.88;4864062;29;45221;-56
2022/01/25 07:46:05;;;;;;;;;59.75;47.75;;;;;2.19;72.71;102658.81;4846901;29;47432;-60
2022/01/25 07:48:31;;;;;;;;;63.75;50.00;;;;;2.22;72.69;102673.00;4831917;29;45767;-57
2022/01/25 07:50:56;;;;;;;;;68.50;47.75;;;;;2.16;73.25;102665.31;4863011;29;45440;-56
2022/01/25 07:53:22;;;;;;;;;73.00;50.25;;;;;2.15;73.01;102669.00;4846851;29;45377;-55
2022/01/25 07:55:47;;;;;;;;;64.25;49.25;;;;;2.06;72.69;102656.09;4863134;29;45400;-55
2022/01/25 07:58:13;;;;;;;;;59.00;48.75;;;;;2.27;73.10;102683.53;4862976;29;45377;-54
2022/01/25 08:00:39;;;;;;;;;67.50;51.50;;;;;2.32;73.11;102677.75;4846776;29;45498;-59
2022/01/25 08:03:04;;;;;;;;;60.75;48.25;;;;;2.36;72.70;102685.59;4862957;29;45653;-57
2022/01/25 08:05:29;;;;;;;;;58.50;48.00;;;;;2.41;72.81;102685.25;4846454;29;46358;-53
2022/01/25 08:07:55;;;;;;;;;60.50;47.00;;;;;2.41;72.86;102685.25;4862869;29;45387;-54
2022/01/25 08:10:22;;;;;;;;;58.00;48.75;;;;;2.38;72.18;102675.50;4863589;29;45907;-50
2022/01/25 08:12:47;;;;;;;;;55.75;47.00;;;;;2.33;72.52;102674.09;4863424;29;45522;-58
2022/01/25 08:15:13;;;;;;;;;59.00;47.50;;;;;2.32;72.58;102677.75;4847481;29;46100;-56
2022/01/25 08:17:39;;;;;;;;;65.25;50.75;;;;;2.21;72.52;102660.44;4846447;29;45536;-54
2022/01/25 08:20:05;;;;;;;;;65.00;46.50;;;;;2.36;72.79;102700.97;4863132;29;45241;-56
2022/01/25 08:22:32;;;;;;;;;57.00;47.25;;;;;2.35;72.40;102700.09;4863326;29;45305;-57
2022/01/25 08:24:58;;;;;;;;;62.25;46.25;;;;;2.32;72.58;102702.16;4874515;29;45927;-57
2022/01/25 08:27:24;;;;;;;;;56.50;44.25;;;;;2.27;72.49;102699.78;4881845;29;45380;-59
2022/01/25 08:29:51;;;;;;;;;63.50;44.75;;;;;2.28;72.26;102701.50;4880793;29;45432;-58
2022/01/25 08:32:17;;;;;;;;;50.00;45.00;;;;;2.23;72.99;102693.72;4865448;29;45646;-54
2022/01/25 08:34:42;;;;;;;;;48.75;40.75;;;;;2.03;72.66;102660.78;4865076;29;45356;-54
2022/01/25 08:37:08;;;;;;;;;60.50;44.75;;;;;2.27;72.76;102699.78;4881349;29;45347;-55
2022/01/25 08:39:33;;;;;;;;;51.75;41.25;;;;;2.27;72.77;102700.66;4882252;29;45313;-54
2022/01/25 08:41:59;;;;;;;;;57.25;44.50;;;;;2.26;72.50;102693.50;4881739;29;45585;-58
2022/01/25 08:44:24;;;;;;;;;52.50;44.75;;;;;2.28;72.38;102694.25;4879837;29;46963;-56
2022/01/25 08:46:50;;;;;;;;;61.25;48.00;;;;;2.33;71.96;102702.06;4864722;29;45272;-52
2022/01/25 08:49:16;;;;;;;;;51.00;42.25;;;;;2.28;72.54;102694.25;4881534;29;45347;-56
2022/01/25 08:51:41;;;;;;;;;50.25;41.50;;;;;2.30;72.31;102699.56;4881588;29;45518;-53
2022/01/25 08:54:07;;;;;;;;;50.50;39.50;;;;;2.33;72.18;102688.50;4881037;29;46405;-57
2022/01/25 08:56:32;;;;;;;;;47.75;43.25;;;;;2.38;72.08;102690.88;4864439;29;45487;-60
2022/01/25 08:58:58;;;;;;;;;64.25;39.50;;;;;2.38;72.69;102691.75;4864727;29;45485;-58
2022/01/25 09:01:25;;;;;;;;;56.50;41.75;;;;;2.34;72.48;102697.53;4881248;29;45364;-58
2022/01/25 09:03:50;;;;;;;;;55.25;41.50;;;;;2.30;72.17;102686.88;4880875;29;46405;-55
2022/01/25 09:06:17;;;;;;;;;60.25;49.00;;;;;2.32;71.91;102692.19;4881187;29;45474;-55
2022/01/25 09:08:42;;;;;;;;;49.50;39.75;;;;;2.40;72.30;102702.50;4839478;29;45355;-55
2022/01/25 09:11:08;;;;;;;;;56.75;41.75;;;;;2.20;72.25;102664.13;4877226;29;45955;-53
2022/01/25 09:13:34;;;;;;;;;45.00;42.25;;;;;2.44;72.30;102704.88;4880874;29;45736;-57
2022/01/25 09:16:00;;;;;;;;;53.25;45.00;;;;;1.80;72.38;102604.66;4880978;29;45501;-53
2022/01/25 09:18:26;;;;;;;;;52.00;41.75;;;;;2.41;72.28;102702.38;4863827;29;45340;-54
2022/01/25 09:20:51;;;;;;;;;59.00;46.50;;;;;2.48;72.64;102710.06;4864394;29;45456;-58
2022/01/25 09:23:18;;;;;;;;;66.00;47.00;;;;;2.47;72.75;102702.91;4878879;29;48212;-52
2022/01/25 09:25:47;;;;;;;;;52.00;44.40;;;;;2.51;72.76;102707.16;4880363;29;45465;-54
2022/01/25 09:28:12;;;;;;;;;56.60;44.80;;;;;2.38;72.47;102688.16;4864463;29;45402;-55
2022/01/25 09:30:38;;;;;;;;;58.00;44.00;;;;;2.55;72.32;102706.81;4881188;29;45648;-56
2022/01/25 09:33:03;;;;;;;;;58.75;45.50;;;;;2.63;71.86;102705.38;4863679;29;46820;-55
2022/01/25 09:35:29;;;;;;;;;43.50;37.50;;;;;2.58;71.94;102714.72;4880868;29;45307;-58
2022/01/25 09:37:55;;;;;;;;;68.00;51.75;;;;;2.60;72.20;102717.31;4864067;29;45716;-57
2022/01/25 09:40:21;;;;;;;;;55.25;45.00;;;;;2.64;72.56;102715.25;4879488;29;45635;-55
2022/01/25 09:42:51;;;;;;;;;59.75;42.75;;;;;2.72;72.00;102729.13;4880368;29;45669;-53
2022/01/25 09:45:17;;;;;;;;;54.00;43.80;;;;;2.72;72.16;102729.13;4864690;29;45473;-59
2022/01/25 09:47:42;;;;;;;;;60.00;44.25;;;;;2.73;72.16;102722.75;4880299;29;45393;-57
2022/01/25 09:50:08;;;;;;;;;64.00;52.25;;;;;2.65;72.00;102723.28;4864640;29;45558;-53
2022/01/25 09:52:35;;;;;;;;;67.50;47.00;;;;;2.55;71.97;102709.53;4864278;29;46276;-51
2022/01/25 09:55:01;;;;;;;;;67.20;46.00;;;;;2.70;72.37;102725.66;4847623;29;45421;-51
2022/01/25 09:57:28;;;;;;;;;64.50;51.25;;;;;2.78;72.29;102734.09;4864189;29;45516;-51
2022/01/25 09:59:54;;;;;;;;;62.00;46.50;;;;;2.78;72.14;102730.53;4881094;29;45435;-54
2022/01/25 10:03:22;;;;;;;;;59.25;47.25;;;;;2.74;72.21;102731.72;4880613;29;45846;-53
2022/01/25 10:05:45;;;;;;;;;60.00;46.80;;;;;2.76;72.05;102730.63;4772424;29;45475;-53
2022/01/25 10:08:13;;;;;;;;;68.50;48.50;;;;;2.76;72.48;102741.47;4835948;29;45501;-51
2022/01/25 10:10:46;;;;;;;;;56.50;47.25;;;;;2.73;72.11;102728.16;4880976;29;45340;-56
2022/01/25 10:13:22;;;;;;;;;71.75;47.75;;;;;2.75;72.29;102728.91;4880448;29;45759;-51
2022/01/25 10:15:57;;;;;;;;;56.25;47.00;;;;;2.30;71.69;102646.22;4879849;29;45432;-55
2022/01/25 10:18:22;;;;;;;;;69.75;46.00;;;;;2.87;72.04;102738.00;4880510;29;45268;-53
2022/01/25 10:20:49;;;;;;;;;57.75;48.00;;;;;2.83;72.12;102731.06;4880344;29;45236;-52
2022/01/25 10:23:25;;;;;;;;;66.00;48.25;;;;;2.82;72.26;102741.03;4846240;29;46472;-56
2022/01/25 10:25:50;;;;;;;;;51.60;40.20;;;;;2.84;72.25;102733.66;4840207;29;45668;-56
2022/01/25 10:28:21;;;;;;;;;64.00;54.00;;;;;2.85;72.17;102746.22;4842318;29;45515;-51
2022/01/25 10:30:49;;;;;;;;;61.75;45.00;;;;;2.89;72.29;102748.75;4830376;29;45413;-52
2022/01/25 10:33:33;;;;;;;;;59.00;46.75;;;;;2.89;72.08;102748.75;4857107;29;45784;-56
2022/01/25 10:36:22;;;;;;;;;56.40;44.40;;;;;2.93;72.05;102742.13;4856406;29;45408;-55
2022/01/25 10:38:48;;;;;;;;;60.75;46.25;;;;;2.67;71.93;102696.06;4843576;29;46253;-52
2022/01/25 10:41:18;;;;;;;;;61.00;43.50;;;;;2.80;71.69;102717.72;4858923;29;45558;-53
2022/01/25 10:43:45;;;;;;;;;51.75;46.25;;;;;2.97;71.50;102740.91;4838225;29;45842;-52
2022/01/25 10:46:18;;;;;;;;;63.40;48.00;;;;;2.81;71.58;102722.16;4841004;29;45479;-51
2022/01/25 10:48:50;;;;;;;;;54.40;46.20;;;;;3.01;71.88;102741.53;4855752;29;45473;-51
2022/01/25 10:51:18;;;;;;;;;63.25;45.50;;;;;3.03;71.55;102750.44;4856623;29;45350;-52
2022/01/25 10:53:44;;;;;;;;;67.50;47.25;;;;;3.03;71.61;102745.03;4854966;29;47544;-55
2022/01/25 10:56:10;;;;;;;;;53.00;46.25;;;;;3.06;71.21;102742.94;4849875;29;45735;-57
2022/01/25 10:58:41;;;;;;;;;55.75;48.50;;;;;3.04;71.45;102747.59;4855132;29;45887;-55
2022/01/25 11:01:06;;;;;;;;;64.00;51.00;;;;;3.01;71.41;102745.13;4855232;29;45783;-50
2022/01/25 11:03:35;;;;;;;;;50.50;41.75;;;;;2.74;71.53;102694.63;4833564;29;45755;-55
2022/01/25 11:06:18;;;;;;;;;60.25;48.50;;;;;2.95;71.74;102723.88;4856201;29;45839;-53
2022/01/25 11:08:48;;;;;;;;;54.50;45.50;;;;;3.07;70.70;102732.94;4812109;29;45526;-59
2022/01/25 11:11:24;;;;;;;;;56.50;45.75;;;;;3.08;71.45;102737.38;4837935;29;45523;-55
2022/01/25 11:13:52;;;;;;;;;50.75;44.75;;;;;3.11;71.18;102743.47;4842180;29;45487;-56
2022/01/25 11:16:18;;;;;;;;;54.40;45.00;;;;;3.10;71.04;102740.88;4874539;29;45786;-58
2022/01/25 11:18:43;;;;;;;;;64.75;45.75;;;;;3.13;70.84;102735.22;4853314;29;45714;-55
2022/01/25 11:21:10;;;;;;;;;61.25;46.00;;;;;2.87;71.35;102685.59;4856325;29;45290;-55
2022/01/25 11:23:37;;;;;;;;;63.00;50.00;;;;;3.22;71.12;102728.25;4846042;28;45514;-56
2022/01/25 11:26:04;;;;;;;;;51.40;43.00;;;;;3.21;70.86;102729.22;4856938;29;45785;-55
2022/01/25 11:28:34;;;;;;;;;67.25;50.50;;;;;3.31;70.82;102732.13;4841160;29;45509;-58
2022/01/25 11:31:07;;;;;;;;;63.25;49.00;;;;;3.39;70.26;102738.72;4823994;29;45531;-56
2022/01/25 11:33:33;;;;;;;;;50.75;43.00;;;;;3.32;70.31;102717.56;4837515;29;45587;-61
2022/01/25 11:35:59;;;;;;;;;55.60;42.80;;;;;3.40;70.31;102731.41;4853909;29;45422;-57
2022/01/25 11:38:46;;;;;;;;;60.50;49.50;;;;;3.39;70.29;102732.41;4851453;29;45530;-54
2022/01/25 11:41:13;;;;;;;;;51.50;44.50;;;;;3.14;70.44;102696.22;4855864;29;45338;-56
2022/01/25 11:43:40;;;;;;;;;59.75;47.25;;;;;3.30;70.33;102742.09;4840602;29;45778;-53
2022/01/25 11:46:07;;;;;;;;;54.60;44.20;;;;;3.07;70.53;102712.13;4820974;29;45471;-59
2022/01/25 11:48:40;;;;;;;;;62.40;45.60;;;;;3.32;70.97;102734.72;4836906;29;45853;-52
2022/01/25 11:51:11;;;;;;;;;51.75;43.75;;;;;3.32;70.90;102739.28;4869517;29;45466;-52
2022/01/25 11:53:37;;;;;;;;;62.00;47.25;;;;;3.39;71.12;102737.81;4858330;29;45516;-52
2022/01/25 11:56:03;;;;;;;;;57.80;47.40;;;;;3.28;70.81;102711.50;4857285;29;45813;-56
2022/01/25 11:58:30;;;;;;;;;68.75;49.00;;;;;3.18;70.88;102697.75;4841160;29;45477;-56
2022/01/25 12:01:03;;;;;;;;;61.25;44.75;;;;;3.16;70.95;102712.41;4857074;29;45782;-56
2022/01/25 12:03:40;;;;;;;;;66.75;50.50;;;;;3.30;70.69;102724.97;4867092;29;46180;-54
2022/01/25 12:06:13;;;;;;;;;65.40;47.20;;;;;3.27;70.68;102712.47;4843877;29;45444;-54
2022/01/25 12:11:57;;;;;;;;;65.25;45.75;;;;;3.43;70.63;102727.59;4856658;29;45486;-53
2022/01/25 12:14:37;;;;;;;;;66.25;46.25;;;;;3.51;70.71;102717.91;4856053;29;47599;-56
2022/01/25 12:17:02;;;;;;;;;65.60;47.40;;;;;3.55;70.80;102726.69;4863333;29;45518;-55
2022/01/25 12:19:30;;;;;;;;;61.00;47.50;;;;;3.48;70.72;102718.13;4877402;29;45506;-57
2022/01/25 12:21:58;;;;;;;;;55.50;45.50;;;;;3.35;70.93;102685.63;4874547;29;45978;-56
2022/01/25 12:24:36;;;;;;;;;50.75;45.00;;;;;3.58;70.75;102704.72;4868778;28;46025;-56
2022/01/25 12:27:27;;;;;;;;;64.00;48.40;;;;;3.42;70.67;102675.13;4859140;29;45607;-59
2022/01/25 12:30:00;;;;;;;;;64.50;46.00;;;;;3.41;70.60;102678.84;4865284;29;45511;-58
2022/01/25 12:32:28;;;;;;;;;65.00;47.25;;;;;3.48;70.64;102684.69;4856516;29;45487;-56
2022/01/25 12:35:04;;;;;;;;;65.75;48.25;;;;;3.31;70.48;102645.25;4857574;29;46788;-60
2022/01/25 12:37:45;;;;;;;;;58.40;41.60;;;;;3.61;70.50;102699.06;4858837;29;45375;-55
2022/01/25 12:40:31;;;;;;;;;63.50;46.00;;;;;3.03;70.68;102598.53;4858946;29;45419;-54
2022/01/25 12:42:59;;;;;;;;;67.75;48.75;;;;;3.50;70.55;102664.59;4858999;29;45523;-52
2022/01/25 12:45:27;;;;;;;;;62.50;46.25;;;;;3.69;70.30;102697.59;4858672;29;46261;-58
2022/01/25 12:47:57;;;;;;;;;64.25;51.00;;;;;3.64;70.55;102693.38;4857195;29;45447;-58
2022/01/25 12:50:23;;;;;;;;;68.75;48.50;;;;;3.35;70.20;102644.03;4858893;29;45815;-60
2022/01/25 12:52:49;;;;;;;;;64.25;46.25;;;;;3.48;70.22;102660.25;4857638;29;45484;-59
2022/01/25 12:55:15;;;;;;;;;69.25;51.75;;;;;3.65;70.23;102683.41;4858786;29;45847;-57
2022/01/25 12:57:47;;;;;;;;;63.00;50.25;;;;;3.67;70.10;102681.41;4858599;29;45395;-57
2022/01/25 13:00:13;;;;;;;;;69.25;51.00;;;;;3.61;70.69;102682.75;4858941;29;45885;-57
2022/01/25 13:02:39;;;;;;;;;55.00;45.75;;;;;3.60;70.23;102680.16;4858744;29;45592;-59
2022/01/25 13:05:18;;;;;;;;;70.75;50.75;;;;;3.62;70.35;102675.47;4861268;29;45377;-53
2022/01/25 13:07:44;;;;;;;;;66.60;50.20;;;;;3.47;70.65;102647.66;4816501;29;45952;-58
2022/01/25 13:10:11;;;;;;;;;68.75;49.25;;;;;3.49;70.75;102640.25;4857610;29;45427;-52
2022/01/25 13:12:54;;;;;;;;;69.25;51.00;;;;;3.64;70.77;102673.50;4858787;29;45593;-55
2022/01/25 13:15:40;;;;;;;;;62.25;47.75;;;;;3.48;70.39;102627.66;4857302;29;45729;-56
2022/01/25 13:18:12;;;;;;;;;72.25;52.50;;;;;3.71;70.59;102661.19;4859072;29;45444;-57
2022/01/25 13:20:42;;;;;;;;;69.00;50.50;;;;;3.72;70.17;102662.91;4860233;29;45563;-50